Disclaimer

    

CYCD

METAR CYCD 190300Z VRB02KT 30SM SKC 18/06 A3005 RMK SLP179 DENSITY ALT 400FT=

METAR CYCD 190200Z 36006KT 30SM FEW052 20/06 A3006 RMK CF1 CF TR SLP180 DENSITY ALT 600FT=

METAR CYCD 190100Z VRB02KT 30SM FEW052 23/05 A3007 RMK CF1 CF TR SLP183 DENSITY ALT 900FT=

TAF CYCD 182341Z 1900/1904 03005KT P6SM SCT050 BECMG 1901/1903 VRB03KT SKC RMK NXT FCST WILL BE ISSUED AT 191445Z=

CYVR

METAR CYVR 190300Z 26002KT 20SM SKC 15/07 A3005 RMK SLP178=

METAR CYVR 190200Z VRB02KT 25SM SKC 16/09 A3006 RMK SLP181=

METAR CYVR 190100Z 25006KT 25SM FEW035 17/07 A3008 RMK CU1 CU TR SLP186 DENSITY ALT 100FT=

TAF CYVR 190238Z 1903/2006 VRB03KT P6SM FEW080 BECMG 1906/1908 07007KT
FM191200 07008KT P6SM SKC BECMG 1919/1921 29008KT BECMG 2004/2006 04006KT RMK NXT FCST BY 190600Z=

CYXX

METAR CYXX 190300Z 22005KT 30SM FEW100 17/06 A3005 RMK AC1 AC TR SLP177 DENSITY ALT 300FT=

METAR CYXX 190200Z 21008KT 30SM FEW050 FEW100 21/06 A3005 RMK CU1AC1 CU TR AC TR SLP177 DENSITY ALT 800FT=

METAR CYXX 190100Z 21008KT 30SM FEW050TCU FEW100 23/06 A3006 RMK TCU1AC1 TCU TR AC TR SLP183 DENSITY ALT 1000FT=

TAF CYXX 182341Z 1900/1924 22008KT P6SM SCT100 SCT250
FM190500 04015G25KT P6SM SCT080 TEMPO 1905/1908 BKN080
FM190800 04015G25KT P6SM SKC BECMG 1916/1918 05012KT BECMG 1920/1922 03008KT RMK NXT FCST BY 190600Z=

Supplemental information

Lower mainland ATIS: 1-877-517-2847

CZBB (Boundary Bay) current winds

Upper winds (Vancouver)

Data fromValid at300060009000
19000019060009150819+070608-01
19000019120007270509+053509-02
19000020000099000709+049900-01

NOTAMs

On October 10, 2019, NAV CANADA changed to the ICAO NOTAM format. They are now available only through Collaborative Flight Planning Services (CFPS) (plan.navcanada.ca). I'm working to update this site to pull in the relevant NOTAMs in the new format.